Time;durP1;ratioP1;P1;durP2;ratioP2;P2;SDS_P1;SDS_P2;PMS_P1;PMS_P2;Temp;Humidity;BMP_temperature;BMP_pressure;BME280_temperature;BME280_humidity;BME280_pressure;Samples;Min_cycle;Max_cycle;Signal;HPM_P1;HPM_P2
2022/04/25 00:00:35;;;;;;;2.37;1.10;;;23.00;39.50;;;;;;5051278;28;20883;-67
2022/04/25 00:03:01;;;;;;;1.92;1.10;;;23.00;39.50;;;;;;5050871;28;20425;-67
2022/04/25 00:05:27;;;;;;;1.80;0.90;;;23.00;40.50;;;;;;5051361;28;20440;-67
2022/04/25 00:07:53;;;;;;;2.28;1.10;;;23.00;39.80;;;;;;5050963;28;20389;-67
2022/04/25 00:10:20;;;;;;;2.17;1.10;;;23.10;39.70;;;;;;5051259;28;20416;-68
2022/04/25 00:12:46;;;;;;;2.03;1.00;;;23.00;39.60;;;;;;5051417;28;20382;-67
2022/04/25 00:15:12;;;;;;;2.97;0.90;;;23.00;39.60;;;;;;5050680;28;20440;-67
2022/04/25 00:17:38;;;;;;;1.92;1.00;;;23.00;39.60;;;;;;5051322;28;20393;-68
2022/04/25 00:20:05;;;;;;;1.70;1.00;;;23.00;39.90;;;;;;5050210;28;20735;-67
2022/04/25 00:22:30;;;;;;;2.72;1.13;;;23.00;39.80;;;;;;5051145;28;20464;-67
2022/04/25 00:24:56;;;;;;;1.70;0.95;;;23.00;39.70;;;;;;5050965;28;20485;-67
2022/04/25 00:27:22;;;;;;;1.20;0.80;;;23.00;39.60;;;;;;5050972;28;20386;-67
2022/04/25 00:29:48;;;;;;;2.53;1.00;;;23.00;39.70;;;;;;5049821;28;20394;-67
2022/04/25 00:32:13;;;;;;;2.60;0.90;;;23.00;39.70;;;;;;5051092;28;20413;-67
2022/04/25 00:34:39;;;;;;;2.70;1.20;;;22.90;39.70;;;;;;5051064;28;20401;-67
2022/04/25 00:37:05;;;;;;;2.27;1.10;;;22.90;39.80;;;;;;5050578;28;20395;-67
2022/04/25 00:39:31;;;;;;;2.10;0.85;;;23.00;39.80;;;;;;5051077;28;20395;-67
2022/04/25 00:41:57;;;;;;;1.60;0.98;;;23.00;39.80;;;;;;5049788;28;20947;-67
2022/04/25 00:44:23;;;;;;;2.20;0.90;;;23.00;39.80;;;;;;5051028;28;20392;-68
2022/04/25 00:46:54;;;;;;;2.95;0.90;;;23.00;39.70;;;;;;5051287;28;20416;-67
2022/04/25 00:49:21;;;;;;;2.05;0.98;;;23.00;39.50;;;;;;5049512;28;20901;-68
2022/04/25 00:51:47;;;;;;;1.75;0.90;;;23.00;39.40;;;;;;5050987;28;20385;-68
2022/04/25 00:54:13;;;;;;;2.07;1.00;;;23.10;39.30;;;;;;5050802;28;20428;-67
2022/04/25 00:56:39;;;;;;;1.67;0.80;;;23.10;39.30;;;;;;5050949;28;20476;-67
2022/04/25 00:59:06;;;;;;;1.70;0.70;;;23.10;39.30;;;;;;5050354;28;20377;-67
2022/04/25 01:01:34;;;;;;;2.78;1.00;;;23.10;39.30;;;;;;5050627;28;21012;-67
2022/04/25 01:04:00;;;;;;;3.53;0.90;;;23.10;39.30;;;;;;5050828;28;20401;-67
2022/04/25 01:06:26;;;;;;;1.70;0.90;;;23.10;39.20;;;;;;5052202;28;20409;-68
2022/04/25 01:08:51;;;;;;;2.00;0.85;;;23.20;39.20;;;;;;5050741;28;20389;-67
2022/04/25 01:11:17;;;;;;;2.20;0.90;;;23.20;39.20;;;;;;5050261;28;20495;-67
2022/04/25 01:13:44;;;;;;;1.70;0.93;;;23.20;39.20;;;;;;5050639;28;20382;-67
2022/04/25 01:16:10;;;;;;;2.08;0.70;;;23.20;39.10;;;;;;5050725;28;20402;-67
2022/04/25 01:18:36;;;;;;;2.10;0.80;;;23.20;39.10;;;;;;5050656;28;20393;-67
2022/04/25 01:21:07;;;;;;;1.80;0.90;;;23.20;39.10;;;;;;5052819;28;20419;-67
2022/04/25 01:29:02;;;;;;;2.03;0.77;;;23.20;39.30;;;;;;5053924;28;20507;-67
2022/04/25 01:31:27;;;;;;;1.63;0.70;;;23.20;39.00;;;;;;5054105;28;20480;-67
2022/04/25 01:33:53;;;;;;;1.80;0.70;;;23.20;39.00;;;;;;5053960;28;20381;-67
2022/04/25 01:36:26;;;;;;;2.50;0.80;;;23.20;39.10;;;;;;5054032;28;20480;-67
2022/04/25 01:38:52;;;;;;;2.20;0.90;;;23.20;39.00;;;;;;5053918;28;20385;-67
2022/04/25 01:41:18;;;;;;;3.83;0.80;;;23.20;39.00;;;;;;5052246;28;20486;-68
2022/04/25 01:43:44;;;;;;;2.00;0.90;;;23.20;39.00;;;;;;5053898;28;20881;-67
2022/04/25 01:46:09;;;;;;;1.80;0.90;;;23.20;38.90;;;;;;5053848;28;20442;-68
2022/04/25 01:48:35;;;;;;;1.42;0.70;;;23.20;39.00;;;;;;5053786;28;20451;-67
2022/04/25 01:51:02;;;;;;;1.42;0.80;;;23.10;39.10;;;;;;5053457;28;20397;-67
2022/04/25 01:53:29;;;;;;;2.50;0.90;;;23.10;39.30;;;;;;5053392;28;20826;-67
2022/04/25 01:55:55;;;;;;;1.90;0.80;;;23.10;39.30;;;;;;5053496;28;20467;-67
2022/04/25 01:58:21;;;;;;;1.63;0.80;;;23.00;39.40;;;;;;5053650;28;20373;-67
2022/04/25 02:00:46;;;;;;;3.50;0.77;;;23.00;39.40;;;;;;5053374;28;20935;-67
2022/04/25 02:03:12;;;;;;;2.30;0.80;;;23.00;39.40;;;;;;5053080;28;20794;-67
2022/04/25 02:05:38;;;;;;;3.13;0.82;;;23.00;39.30;;;;;;5053448;28;20381;-67
2022/04/25 02:08:04;;;;;;;1.45;0.52;;;22.90;39.30;;;;;;5053416;28;20421;-67
2022/04/25 02:10:30;;;;;;;1.87;0.80;;;22.90;39.30;;;;;;5053245;28;20481;-67
2022/04/25 02:12:55;;;;;;;2.00;0.80;;;22.80;39.60;;;;;;5053277;28;20381;-67
2022/04/25 02:15:21;;;;;;;3.23;0.73;;;22.90;39.50;;;;;;5052833;28;20420;-67
2022/04/25 02:17:47;;;;;;;1.58;0.77;;;22.80;39.50;;;;;;5053304;28;20393;-67
2022/04/25 02:20:13;;;;;;;1.97;0.77;;;22.80;39.50;;;;;;5053107;28;20413;-67
2022/04/25 02:22:39;;;;;;;1.85;0.88;;;22.80;39.40;;;;;;5053145;28;20397;-67
2022/04/25 02:25:05;;;;;;;2.47;0.88;;;22.70;39.40;;;;;;5051555;28;20448;-67
2022/04/25 02:27:31;;;;;;;1.60;0.90;;;22.70;39.20;;;;;;5052952;28;20932;-67
2022/04/25 02:29:59;;;;;;;1.48;0.80;;;22.70;39.50;;;;;;5052988;28;20481;-67
2022/04/25 02:32:27;;;;;;;2.35;0.90;;;22.70;39.40;;;;;;5052682;28;20389;-67
2022/04/25 02:34:54;;;;;;;1.85;1.00;;;22.80;39.40;;;;;;5052744;28;20423;-67
2022/04/25 02:37:21;;;;;;;1.38;0.90;;;22.70;39.20;;;;;;5052360;28;20927;-67
2022/04/25 02:39:46;;;;;;;2.20;0.90;;;22.70;39.30;;;;;;5052831;28;20431;-68
2022/04/25 02:42:12;;;;;;;1.30;0.85;;;22.70;39.50;;;;;;5052649;28;20480;-67
2022/04/25 02:44:38;;;;;;;2.13;0.80;;;22.60;39.20;;;;;;5052688;28;20393;-68
2022/04/25 02:47:04;;;;;;;1.17;0.70;;;22.70;39.60;;;;;;5052362;28;20393;-67
2022/04/25 02:49:30;;;;;;;1.30;0.70;;;22.70;39.50;;;;;;5052406;28;20389;-67
2022/04/25 02:51:56;;;;;;;1.40;0.70;;;22.60;39.20;;;;;;5052558;28;20429;-67
2022/04/25 02:54:22;;;;;;;1.23;0.70;;;22.70;39.20;;;;;;5052550;28;20936;-67
2022/04/25 02:56:48;;;;;;;1.17;0.60;;;22.60;39.10;;;;;;5052455;28;20912;-67
2022/04/25 02:59:15;;;;;;;1.67;0.70;;;22.60;40.10;;;;;;5051960;28;20401;-67
2022/04/25 03:01:41;;;;;;;1.53;0.70;;;22.60;39.40;;;;;;5052280;28;20413;-67
2022/04/25 03:04:07;;;;;;;2.20;0.88;;;22.60;39.30;;;;;;5052334;28;20381;-66
2022/04/25 03:06:33;;;;;;;1.70;0.90;;;22.60;39.30;;;;;;5052360;28;20439;-66
2022/04/25 03:08:58;;;;;;;1.30;0.73;;;22.60;39.20;;;;;;5052244;28;20393;-67
2022/04/25 03:11:25;;;;;;;1.80;0.80;;;22.60;39.30;;;;;;5051720;28;20386;-67
2022/04/25 03:13:52;;;;;;;1.73;0.90;;;22.60;39.40;;;;;;5052099;28;20386;-67
2022/04/25 03:16:19;;;;;;;1.10;0.60;;;22.60;39.50;;;;;;5052097;28;20447;-67
2022/04/25 03:18:45;;;;;;;1.60;0.70;;;22.60;39.50;;;;;;5052125;28;20424;-67
2022/04/25 03:21:11;;;;;;;2.13;0.90;;;22.60;39.60;;;;;;5051511;28;20805;-67
2022/04/25 03:23:36;;;;;;;1.60;0.80;;;22.60;39.40;;;;;;5050735;28;20397;-68
2022/04/25 03:26:02;;;;;;;1.38;0.80;;;22.60;39.40;;;;;;5051840;28;20388;-67
2022/04/25 03:28:28;;;;;;;1.70;0.70;;;22.50;39.60;;;;;;5052056;28;20439;-68
2022/04/25 03:30:54;;;;;;;1.60;0.80;;;22.60;39.60;;;;;;5050576;28;20419;-67
2022/04/25 03:33:19;;;;;;;2.90;0.88;;;22.60;39.60;;;;;;5050121;28;20428;-67
2022/04/25 03:35:46;;;;;;;1.20;0.80;;;22.60;39.40;;;;;;5051718;28;20431;-67
2022/04/25 03:38:13;;;;;;;1.15;0.60;;;22.50;39.50;;;;;;5051665;28;20991;-67
2022/04/25 03:40:40;;;;;;;1.48;0.73;;;22.50;39.40;;;;;;5051740;28;20889;-67
2022/04/25 03:43:06;;;;;;;1.27;0.70;;;22.50;39.30;;;;;;5050806;28;20428;-67
2022/04/25 03:45:33;;;;;;;1.70;0.70;;;22.50;39.80;;;;;;5051512;28;20385;-68
2022/04/25 03:47:59;;;;;;;3.30;2.42;;;22.60;39.70;;;;;;5051415;28;20393;-68
2022/04/25 03:50:25;;;;;;;4.20;2.78;;;22.60;41.10;;;;;;5050103;28;20401;-67
2022/04/25 03:52:50;;;;;;;4.55;1.90;;;22.60;42.50;;;;;;5051317;28;20377;-67
2022/04/25 03:58:04;;;;;;;3.72;1.48;;;22.60;42.50;;;;;;5051385;28;20462;-68
2022/04/25 04:00:31;;;;;;;5.22;1.30;;;22.60;42.80;;;;;;5051357;28;20385;-68
2022/04/25 04:03:00;;;;;;;3.97;1.33;;;22.70;43.50;;;;;;5051377;28;20421;-68
2022/04/25 04:05:28;;;;;;;3.70;1.20;;;22.80;43.20;;;;;;5050895;28;20396;-68
2022/04/25 04:07:54;;;;;;;3.35;1.23;;;22.80;42.90;;;;;;5051196;28;20394;-67
2022/04/25 04:10:20;;;;;;;4.30;1.10;;;22.90;42.90;;;;;;5051230;28;20742;-66
2022/04/25 04:12:46;;;;;;;4.15;0.90;;;22.90;42.70;;;;;;5050044;28;20419;-67
2022/04/25 04:15:13;;;;;;;4.93;0.93;;;23.00;42.50;;;;;;5050615;28;20417;-68
2022/04/25 04:17:39;;;;;;;4.65;1.02;;;23.10;42.80;;;;;;5050247;28;20432;-68
2022/04/25 04:20:06;;;;;;;4.60;0.90;;;23.20;42.50;;;;;;5049725;28;20425;-68
2022/04/25 04:22:32;;;;;;;3.35;0.95;;;23.20;42.40;;;;;;5049821;28;20385;-68
2022/04/25 04:25:01;;;;;;;3.05;0.93;;;23.30;42.40;;;;;;5052149;28;20394;-68
2022/04/25 04:27:31;;;;;;;3.03;1.00;;;23.30;42.30;;;;;;5050734;28;20455;-67
2022/04/25 04:29:58;;;;;;;5.90;1.00;;;23.40;42.30;;;;;;5051102;28;20429;-67
2022/04/25 04:32:25;;;;;;;3.53;0.80;;;23.40;42.40;;;;;;5066382;28;20475;-68
2022/04/25 04:34:51;;;;;;;5.53;0.88;;;23.40;42.40;;;;;;5070871;28;20422;-68
2022/04/25 04:37:16;;;;;;;4.13;0.95;;;23.50;42.30;;;;;;5069146;28;20383;-67
2022/04/25 04:39:42;;;;;;;7.17;1.20;;;23.50;42.30;;;;;;5070871;28;20388;-67
2022/04/25 04:42:08;;;;;;;5.10;1.00;;;23.50;42.30;;;;;;5071003;28;20391;-64
2022/04/25 04:44:33;;;;;;;9.13;1.20;;;23.50;41.50;;;;;;5070782;28;20458;-65
2022/04/25 04:46:59;;;;;;;7.75;1.10;;;23.50;42.10;;;;;;5049683;28;20401;-67
2022/04/25 04:49:25;;;;;;;6.63;1.10;;;23.50;41.90;;;;;;5039164;28;20395;-66
2022/04/25 04:51:50;;;;;;;5.37;1.20;;;23.60;41.80;;;;;;5049429;28;20391;-64
2022/04/25 04:54:16;;;;;;;3.97;1.10;;;23.50;41.60;;;;;;5046676;28;20477;-67
2022/04/25 04:56:41;;;;;;;6.57;0.90;;;23.60;41.70;;;;;;5033459;28;20407;-68
2022/04/25 04:59:07;;;;;;;7.88;0.85;;;23.60;41.60;;;;;;5034157;28;20863;-66
2022/04/25 05:01:33;;;;;;;5.72;0.80;;;23.60;41.30;;;;;;5050689;28;20409;-65
2022/04/25 05:03:59;;;;;;;9.65;1.50;;;23.50;41.10;;;;;;5072539;28;20387;-68
2022/04/25 05:06:28;;;;;;;9.17;1.40;;;23.60;40.20;;;;;;5072924;28;20503;-66
2022/04/25 05:08:54;;;;;;;10.20;1.90;;;23.60;40.10;;;;;;5072805;28;20392;-68
2022/04/25 05:11:21;;;;;;;14.70;2.00;;;23.50;40.10;;;;;;5073837;28;20449;-69
2022/04/25 05:13:47;;;;;;;12.52;1.65;;;23.50;40.10;;;;;;5074488;28;20437;-68
2022/04/25 05:16:12;;;;;;;8.70;1.80;;;23.50;39.70;;;;;;5074107;28;20418;-68
2022/04/25 05:18:38;;;;;;;9.60;1.60;;;23.50;39.70;;;;;;5074329;28;20388;-69
2022/04/25 05:21:04;;;;;;;10.33;1.77;;;23.50;39.70;;;;;;5074150;28;20484;-68
2022/04/25 05:23:31;;;;;;;9.03;1.80;;;23.50;39.60;;;;;;5073795;28;20823;-68
2022/04/25 05:25:58;;;;;;;7.30;1.50;;;23.50;39.60;;;;;;5072655;28;20395;-68
2022/04/25 05:28:25;;;;;;;8.68;1.50;;;23.50;39.60;;;;;;5072872;28;20387;-69
2022/04/25 05:30:51;;;;;;;7.15;1.38;;;23.50;39.50;;;;;;5074105;28;20396;-69
2022/04/25 05:33:18;;;;;;;4.60;1.45;;;23.50;39.50;;;;;;5073550;28;20391;-68
2022/04/25 05:35:45;;;;;;;3.58;1.30;;;23.50;39.40;;;;;;5063158;28;20454;-68
2022/04/25 05:38:11;;;;;;;3.42;1.20;;;23.50;39.50;;;;;;5039702;28;20394;-70
2022/04/25 05:40:37;;;;;;;5.72;1.40;;;23.50;39.90;;;;;;5041581;28;20387;-70
2022/04/25 05:43:06;;;;;;;7.57;1.52;;;23.60;40.40;;;;;;5045204;28;20859;-70
2022/04/25 05:45:32;;;;;;;6.05;1.40;;;23.60;40.50;;;;;;5038065;28;20460;-68
2022/04/25 05:47:58;;;;;;;3.22;1.70;;;23.70;40.00;;;;;;5032823;28;20771;-69
2022/04/25 05:53:10;;;;;;;5.55;1.70;;;23.70;40.50;;;;;;5042477;28;20909;-69
2022/04/25 05:55:37;;;;;;;5.27;1.50;;;23.70;40.40;;;;;;5042989;28;20428;-70
2022/04/25 05:58:03;;;;;;;5.43;1.50;;;23.60;39.80;;;;;;5052406;28;20408;-70
2022/04/25 06:00:31;;;;;;;5.03;1.42;;;23.60;39.40;;;;;;5043998;28;20438;-71
2022/04/25 06:02:57;;;;;;;2.78;1.48;;;23.60;39.40;;;;;;5053387;28;20401;-65
2022/04/25 06:05:24;;;;;;;3.75;1.30;;;23.70;39.10;;;;;;5052138;28;20482;-70
2022/04/25 06:07:50;;;;;;;2.78;1.20;;;23.70;39.50;;;;;;5086128;28;20382;-69
2022/04/25 06:10:18;;;;;;;4.50;1.30;;;23.70;39.60;;;;;;5053055;28;20389;-70
2022/04/25 06:12:48;;;;;;;3.17;1.20;;;23.70;39.60;;;;;;5053064;28;20400;-69
2022/04/25 06:15:16;;;;;;;2.95;1.20;;;23.70;39.90;;;;;;5049345;28;20418;-69
2022/04/25 06:17:42;;;;;;;3.38;1.20;;;23.70;39.20;;;;;;5067892;28;20742;-69
2022/04/25 06:20:09;;;;;;;2.20;1.23;;;23.70;39.00;;;;;;5052684;28;20735;-66
2022/04/25 06:22:36;;;;;;;2.05;1.20;;;23.70;39.80;;;;;;5051515;28;20873;-70
2022/04/25 06:25:03;;;;;;;2.88;1.25;;;23.70;39.10;;;;;;5052817;28;20405;-69
2022/04/25 06:27:29;;;;;;;2.60;1.10;;;23.70;39.10;;;;;;5045844;28;20389;-69
2022/04/25 06:29:55;;;;;;;1.95;1.30;;;23.70;38.90;;;;;;5052989;28;20394;-68
2022/04/25 06:32:21;;;;;;;2.75;1.02;;;23.70;38.80;;;;;;5054058;28;20384;-70
2022/04/25 06:34:47;;;;;;;2.30;0.90;;;23.70;38.70;;;;;;5052418;28;20420;-70
2022/04/25 06:37:13;;;;;;;2.15;1.10;;;23.70;39.10;;;;;;5052368;28;20378;-68
2022/04/25 06:39:39;;;;;;;2.75;1.25;;;23.70;38.60;;;;;;5052565;28;20459;-70
2022/04/25 06:42:05;;;;;;;3.05;1.02;;;23.60;38.40;;;;;;5052645;28;20404;-71
2022/04/25 06:44:32;;;;;;;1.80;1.10;;;23.60;38.50;;;;;;5053287;28;20476;-71
2022/04/25 06:46:57;;;;;;;1.50;1.00;;;23.60;38.40;;;;;;5052403;28;20464;-69
2022/04/25 06:49:23;;;;;;;1.75;1.10;;;23.60;38.30;;;;;;5050795;28;20402;-70
2022/04/25 06:51:57;;;;;;;3.50;1.30;;;23.70;38.40;;;;;;5052949;28;20416;-69
2022/04/25 06:54:26;;;;;;;2.03;1.20;;;23.60;38.20;;;;;;5050935;28;20405;-70
2022/04/25 06:56:53;;;;;;;2.03;1.00;;;23.70;38.40;;;;;;5052141;28;20422;-70
2022/04/25 06:59:20;;;;;;;1.42;1.08;;;23.60;38.30;;;;;;5052071;28;20480;-70
2022/04/25 07:01:47;;;;;;;2.25;1.20;;;23.70;38.20;;;;;;5052069;28;20425;-66
2022/04/25 07:04:13;;;;;;;3.40;1.10;;;23.60;38.50;;;;;;5052032;28;20415;-69
2022/04/25 07:06:39;;;;;;;8.18;1.85;;;23.60;38.20;;;;;;5051959;28;20862;-71
2022/04/25 07:09:05;;;;;;;10.93;2.30;;;23.60;38.00;;;;;;5050746;28;20431;-71
2022/04/25 07:11:32;;;;;;;13.52;2.00;;;23.60;37.70;;;;;;5051920;28;20389;-72
2022/04/25 07:13:59;;;;;;;6.25;1.50;;;23.60;38.20;;;;;;5051804;28;20396;-69
2022/04/25 07:16:25;;;;;;;8.32;1.60;;;23.60;38.90;;;;;;5050828;28;20519;-70
2022/04/25 07:18:52;;;;;;;6.90;1.67;;;23.60;38.90;;;;;;5051042;28;20476;-66
2022/04/25 07:29:52;;;;;;;7.35;1.58;;;23.70;38.20;;;;;;5029244;28;20961;-70
2022/04/25 07:32:18;;;;;;;6.80;1.33;;;23.60;38.10;;;;;;5029266;28;20434;-71
2022/04/25 07:34:48;;;;;;;5.00;1.50;;;23.60;38.60;;;;;;5039725;28;20421;-72
2022/04/25 07:37:15;;;;;;;8.30;1.43;;;23.60;38.70;;;;;;5052756;28;20397;-70
2022/04/25 07:39:42;;;;;;;6.95;1.77;;;23.70;39.00;;;;;;5051696;28;20404;-70
2022/04/25 07:42:08;;;;;;;4.88;1.67;;;23.70;38.90;;;;;;5051536;28;20393;-68
2022/04/25 07:44:33;;;;;;;5.93;1.40;;;23.70;38.90;;;;;;5051925;28;20799;-71
2022/04/25 07:46:59;;;;;;;4.63;1.50;;;23.70;39.00;;;;;;5042032;28;20874;-71
2022/04/25 07:49:26;;;;;;;5.70;1.40;;;23.70;39.00;;;;;;5039707;28;20729;-69
2022/04/25 07:51:51;;;;;;;6.95;1.35;;;23.70;38.80;;;;;;5032293;28;20855;-70
2022/04/25 07:54:18;;;;;;;4.97;1.38;;;23.70;38.90;;;;;;5031355;28;20415;-71
2022/04/25 07:56:45;;;;;;;3.75;1.35;;;23.70;38.40;;;;;;5031429;28;20455;-70
2022/04/25 07:59:11;;;;;;;5.38;1.50;;;23.70;38.20;;;;;;5031322;28;20395;-70
2022/04/25 08:01:37;;;;;;;6.03;1.58;;;23.70;38.20;;;;;;5030724;28;20776;-66
2022/04/25 08:04:03;;;;;;;5.22;1.60;;;23.70;38.20;;;;;;5031269;28;20415;-69
2022/04/25 08:06:29;;;;;;;6.03;1.48;;;23.70;38.00;;;;;;5032110;28;20383;-70
2022/04/25 08:08:56;;;;;;;7.38;1.70;;;23.70;38.10;;;;;;5031068;28;20434;-70
2022/04/25 08:11:22;;;;;;;8.07;1.60;;;23.70;38.00;;;;;;5029876;28;20386;-69
2022/04/25 08:19:20;;;;;;;9.82;1.58;;;23.80;38.10;;;;;;5037211;28;20403;-69
2022/04/25 08:21:46;;;;;;;4.60;1.25;;;23.80;38.00;;;;;;5031075;28;20403;-70
2022/04/25 08:24:13;;;;;;;4.55;1.60;;;23.70;38.00;;;;;;5030833;28;20508;-70
2022/04/25 08:26:39;;;;;;;3.77;1.23;;;23.80;38.00;;;;;;5031681;28;20402;-70
2022/04/25 08:29:06;;;;;;;4.88;1.30;;;23.80;37.90;;;;;;5032896;28;20879;-70
2022/04/25 08:31:33;;;;;;;4.40;1.25;;;23.80;37.80;;;;;;5033509;28;20403;-69
2022/04/25 08:34:00;;;;;;;5.72;1.50;;;23.70;37.70;;;;;;5035014;28;20917;-70
2022/04/25 08:36:25;;;;;;;3.85;1.40;;;23.70;37.80;;;;;;5035331;28;20962;-67
2022/04/25 08:38:51;;;;;;;4.93;1.63;;;23.70;37.90;;;;;;5034631;28;20490;-68
2022/04/25 08:41:23;;;;;;;4.90;1.50;;;23.70;37.90;;;;;;5034459;28;20393;-68
2022/04/25 08:43:52;;;;;;;5.05;1.65;;;23.70;37.70;;;;;;5034779;28;20997;-69
2022/04/25 08:46:21;;;;;;;3.15;1.40;;;23.70;37.80;;;;;;5033288;28;20395;-69
2022/04/25 08:48:51;;;;;;;4.20;1.40;;;23.70;37.80;;;;;;5033115;28;20485;-67
2022/04/25 08:51:17;;;;;;;3.78;1.48;;;23.70;37.80;;;;;;5035471;28;20394;-64
2022/04/25 08:53:45;;;;;;;3.83;1.40;;;23.70;37.60;;;;;;5034268;28;20395;-68
2022/04/25 08:56:12;;;;;;;4.45;1.70;;;23.70;37.70;;;;;;5034940;28;20795;-68
2022/04/25 08:58:41;;;;;;;2.40;1.50;;;23.80;37.70;;;;;;5033474;28;20399;-68
2022/04/25 09:01:12;;;;;;;3.72;1.58;;;23.80;37.70;;;;;;5034642;28;20418;-68
2022/04/25 09:03:38;;;;;;;4.75;1.73;;;23.80;37.70;;;;;;5034112;28;20462;-67
2022/04/25 09:06:06;;;;;;;4.50;1.73;;;23.80;37.70;;;;;;5034216;28;20762;-68
2022/04/25 09:08:32;;;;;;;5.13;1.45;;;23.80;37.70;;;;;;5034561;28;20387;-67
2022/04/25 09:13:43;;;;;;;5.60;1.60;;;23.90;37.80;;;;;;5034178;28;20385;-68
2022/04/25 09:16:12;;;;;;;7.43;1.60;;;23.90;37.80;;;;;;5033883;28;20436;-68
2022/04/25 09:18:38;;;;;;;3.90;1.80;;;23.90;37.60;;;;;;5040598;28;20413;-67
2022/04/25 09:21:05;;;;;;;5.63;1.45;;;23.90;37.70;;;;;;5054118;28;20926;-67
2022/04/25 09:23:31;;;;;;;5.65;1.80;;;23.90;37.60;;;;;;5053489;28;20382;-67
2022/04/25 09:26:16;;;;;;;5.40;1.70;;;23.90;37.60;;;;;;5053875;28;20722;-68
2022/04/25 09:28:52;;;;;;;4.75;1.52;;;23.90;37.50;;;;;;5054042;28;20404;-67
2022/04/25 09:31:19;;;;;;;3.65;1.70;;;23.90;37.40;;;;;;5053931;28;20385;-66
2022/04/25 09:33:45;;;;;;;4.35;1.85;;;23.90;37.60;;;;;;5054003;28;20777;-68
2022/04/25 09:36:11;;;;;;;3.10;1.60;;;23.90;37.60;;;;;;5052761;28;20421;-67
2022/04/25 09:38:40;;;;;;;3.30;1.58;;;23.90;37.60;;;;;;5052523;28;20417;-68
2022/04/25 09:41:08;;;;;;;3.95;1.80;;;23.90;37.50;;;;;;5053299;28;20893;-68
2022/04/25 09:43:38;;;;;;;3.58;1.75;;;23.90;37.40;;;;;;5053262;28;20878;-69
2022/04/25 09:46:14;;;;;;;4.22;1.95;;;24.00;37.40;;;;;;5053809;28;20431;-68
2022/04/25 09:48:43;;;;;;;4.20;1.90;;;23.90;37.30;;;;;;5052255;28;20432;-68
2022/04/25 09:51:16;;;;;;;2.90;1.73;;;24.00;37.40;;;;;;5053716;28;20401;-68
2022/04/25 09:53:52;;;;;;;4.60;1.80;;;24.00;37.40;;;;;;5053149;28;20393;-68
2022/04/25 09:56:19;;;;;;;3.72;1.98;;;24.00;37.40;;;;;;5053744;28;20520;-68
2022/04/25 09:59:00;;;;;;;2.97;1.80;;;24.00;37.30;;;;;;5053231;28;20459;-68
2022/04/25 10:01:26;;;;;;;2.88;1.80;;;24.00;37.20;;;;;;5053075;28;20456;-69
2022/04/25 10:03:52;;;;;;;3.97;1.75;;;24.00;37.30;;;;;;5053830;28;20476;-68
2022/04/25 10:06:20;;;;;;;6.25;2.00;;;24.00;37.20;;;;;;5053185;28;20480;-69
2022/04/25 10:08:46;;;;;;;4.32;2.00;;;24.10;37.40;;;;;;5053205;28;20429;-68
2022/04/25 10:11:15;;;;;;;3.92;2.10;;;24.10;37.40;;;;;;5052036;28;20398;-69
2022/04/25 10:13:42;;;;;;;6.00;2.10;;;24.00;37.60;;;;;;5043255;28;20922;-65
2022/04/25 10:16:09;;;;;;;7.15;1.98;;;24.00;37.60;;;;;;5044051;28;20441;-69
2022/04/25 10:18:37;;;;;;;4.57;1.92;;;24.00;37.50;;;;;;5053103;28;20417;-66
2022/04/25 10:21:06;;;;;;;6.65;2.15;;;24.10;37.30;;;;;;5052976;28;20931;-66
2022/04/25 10:23:33;;;;;;;5.47;2.10;;;24.20;37.50;;;;;;5051622;28;20870;-64
2022/04/25 10:26:01;;;;;;;3.40;2.28;;;24.20;37.40;;;;;;5052829;28;20439;-64
2022/04/25 10:28:36;;;;;;;6.68;2.20;;;24.10;37.40;;;;;;5052484;28;20390;-64
2022/04/25 10:31:05;;;;;;;4.47;2.30;;;24.20;37.50;;;;;;5052785;28;20386;-64
2022/04/25 10:33:51;;;;;;;5.47;2.30;;;24.20;37.50;;;;;;5052528;28;20381;-64
2022/04/25 10:36:38;;;;;;;5.10;2.30;;;24.20;37.40;;;;;;5052555;28;20947;-65
2022/04/25 10:39:27;;;;;;;5.35;2.30;;;24.20;37.40;;;;;;5051190;28;20401;-68
2022/04/25 10:44:37;;;;;;;6.88;2.75;;;24.20;37.70;;;;;;5052293;28;20755;-68
2022/04/25 10:47:05;;;;;;;6.73;2.50;;;24.20;37.50;;;;;;5052486;28;20472;-68
2022/04/25 10:49:36;;;;;;;5.00;2.55;;;24.20;37.30;;;;;;5052211;28;20397;-68
2022/04/25 10:52:04;;;;;;;4.53;2.55;;;24.20;37.20;;;;;;5052030;28;20382;-67
2022/04/25 10:54:51;;;;;;;5.78;2.50;;;24.30;37.20;;;;;;5051671;28;20436;-68
2022/04/25 10:57:17;;;;;;;4.15;2.20;;;24.30;37.10;;;;;;5052290;28;20439;-68
2022/04/25 10:59:44;;;;;;;3.10;2.25;;;24.30;37.10;;;;;;5033676;28;20412;-67
2022/04/25 11:02:25;;;;;;;4.68;2.30;;;24.30;37.00;;;;;;5051714;28;20409;-67
2022/04/25 11:05:10;;;;;;;6.43;2.75;;;24.30;37.00;;;;;;5052059;28;20807;-67
2022/04/25 11:07:37;;;;;;;7.73;3.00;;;24.30;36.90;;;;;;5051751;28;20885;-67
2022/04/25 11:10:03;;;;;;;6.30;2.83;;;24.20;36.70;;;;;;5051912;28;20415;-70
2022/04/25 11:12:59;;;;;;;4.88;2.47;;;24.30;36.90;;;;;;5050447;28;20893;-69
2022/04/25 11:15:40;;;;;;;4.78;2.30;;;24.30;36.90;;;;;;5047265;28;20425;-68
2022/04/25 11:18:33;;;;;;;6.32;2.47;;;24.30;36.90;;;;;;5051656;28;20481;-70
2022/04/25 11:21:05;;;;;;;6.28;2.40;;;24.40;36.70;;;;;;5055009;28;20399;-69
2022/04/25 11:23:32;;;;;;;5.63;2.67;;;24.40;36.60;;;;;;5059798;28;20386;-69
2022/04/25 11:26:00;;;;;;;4.90;2.50;;;24.50;36.60;;;;;;5063211;28;20410;-69
2022/04/25 11:28:27;;;;;;;5.13;2.60;;;24.50;36.50;;;;;;5070157;28;20387;-70
2022/04/25 11:31:28;;;;;;;5.00;2.38;;;24.50;36.50;;;;;;5070538;28;20392;-69
2022/04/25 11:34:01;;;;;;;5.15;2.35;;;24.50;36.40;;;;;;5028708;28;20887;-69
2022/04/25 11:36:27;;;;;;;3.55;2.30;;;24.50;36.30;;;;;;5031136;28;20438;-67
2022/04/25 11:41:40;;;;;;;3.97;2.28;;;24.50;36.30;;;;;;5044601;28;20402;-65
2022/04/25 11:44:06;;;;;;;3.22;2.38;;;24.40;36.40;;;;;;5040786;28;20421;-69
2022/04/25 11:46:34;;;;;;;3.70;2.30;;;24.40;36.40;;;;;;5051294;28;20498;-68
2022/04/25 11:49:00;;;;;;;3.38;2.35;;;24.40;36.50;;;;;;5051420;28;20381;-68
2022/04/25 11:51:29;;;;;;;3.40;2.20;;;24.40;36.50;;;;;;5051620;28;20397;-70
2022/04/25 11:54:00;;;;;;;3.20;2.17;;;24.40;36.40;;;;;;5049363;28;20439;-64
2022/04/25 11:56:29;;;;;;;3.17;2.30;;;24.40;36.60;;;;;;5051174;28;20413;-68
2022/04/25 11:58:56;;;;;;;5.20;2.30;;;24.40;36.60;;;;;;5049753;28;20820;-68
2022/04/25 12:01:36;;;;;;;2.67;2.03;;;24.40;36.60;;;;;;5051066;28;20498;-69
2022/04/25 12:04:20;;;;;;;3.97;2.20;;;24.40;36.80;;;;;;5050396;28;20381;-68
2022/04/25 12:06:56;;;;;;;3.33;2.20;;;24.30;36.70;;;;;;5051073;28;20410;-70
2022/04/25 12:17:47;;;;;;;3.63;2.30;;;24.50;36.20;;;;;;5050886;28;20424;-69
2022/04/25 12:20:17;;;;;;;3.78;2.17;;;24.60;36.20;;;;;;5051141;28;20377;-69
2022/04/25 12:22:55;;;;;;;6.38;2.20;;;24.60;36.30;;;;;;5050905;28;20397;-66
2022/04/25 12:25:26;;;;;;;6.33;2.30;;;24.60;36.10;;;;;;5050900;28;20872;-70
2022/04/25 12:28:12;;;;;;;4.80;2.40;;;24.70;36.10;;;;;;5049585;28;20903;-68
2022/04/25 12:30:56;;;;;;;3.92;2.30;;;24.70;36.00;;;;;;5050735;28;20389;-69
2022/04/25 12:33:32;;;;;;;5.20;2.38;;;24.70;36.00;;;;;;5050897;28;20829;-69
2022/04/25 12:36:20;;;;;;;5.50;2.55;;;24.70;35.80;;;;;;5050394;28;20906;-68
2022/04/25 12:38:59;;;;;;;5.35;2.42;;;24.70;35.90;;;;;;5050502;28;20405;-69
2022/04/25 12:41:32;;;;;;;4.23;2.30;;;24.70;35.90;;;;;;5050667;28;20453;-69
2022/04/25 12:44:11;;;;;;;4.45;2.42;;;24.70;35.80;;;;;;5050045;28;20428;-68
2022/04/25 12:46:48;;;;;;;5.22;2.42;;;24.80;35.90;;;;;;5050370;28;20388;-69
2022/04/25 12:49:22;;;;;;;4.57;2.20;;;24.80;35.80;;;;;;5050504;28;20891;-69
2022/04/25 12:51:54;;;;;;;6.78;2.60;;;24.80;35.80;;;;;;5049878;28;20480;-70
2022/04/25 12:54:24;;;;;;;5.47;2.60;;;24.80;35.80;;;;;;5051076;28;20862;-69
2022/04/25 12:56:52;;;;;;;7.43;2.65;;;24.80;35.70;;;;;;5050811;28;20405;-69
2022/04/25 12:59:25;;;;;;;5.18;2.60;;;24.80;35.70;;;;;;5050836;28;20385;-70
2022/04/25 13:02:07;;;;;;;7.47;2.60;;;24.80;35.80;;;;;;5044650;28;20425;-69
2022/04/25 13:04:52;;;;;;;3.42;2.40;;;24.80;35.80;;;;;;5040256;28;20395;-69
2022/04/25 13:07:31;;;;;;;6.32;2.63;;;24.80;35.70;;;;;;5040867;28;20391;-70
2022/04/25 13:09:59;;;;;;;4.57;2.63;;;24.80;35.70;;;;;;5039866;28;20391;-68
2022/04/25 13:12:32;;;;;;;5.15;2.63;;;24.70;35.70;;;;;;5038353;28;20901;-68
2022/04/25 13:14:58;;;;;;;5.25;2.50;;;24.70;35.60;;;;;;5042671;28;20901;-69
2022/04/25 13:17:24;;;;;;;4.40;2.50;;;24.80;35.70;;;;;;5042566;28;20946;-70
2022/04/25 13:19:50;;;;;;;4.10;2.55;;;24.80;35.70;;;;;;5043736;28;20480;-69
2022/04/25 13:22:16;;;;;;;3.77;2.50;;;24.80;35.60;;;;;;5040931;28;20412;-70
2022/04/25 13:24:43;;;;;;;4.70;2.70;;;24.80;35.60;;;;;;5044571;28;20396;-68
2022/04/25 13:27:09;;;;;;;13.38;4.22;;;24.80;35.50;;;;;;5043050;28;20387;-69
2022/04/25 13:29:35;;;;;;;17.42;5.07;;;24.80;35.30;;;;;;5043258;28;20444;-69
2022/04/25 13:32:02;;;;;;;17.17;5.23;;;24.80;35.50;;;;;;5042851;28;20427;-68